No requiere especial atencion con respecto al clima.   -   No hay Alarmas

Nearby METAR Reports

 

LELL - Sabadell, Spain
Distance from station: ONO 14km
Actualización: 15/10/2018 15:30
Few Clouds
Few Clouds
 Viento del OSO
Viento: OSO 9 km/h
Temperatura: 22°C
Rocío: 14°C
Humedad: 61%
Barómetro: 1006 hPa
Clouds: Few Clouds
Visibilidad: 10 km
Cloud details: Few Clouds 914 m
2018/10/15 13:30 LELL 151330Z 24005KT 170V290 9999 FEW030 22/14 Q1006
LEBL - Barcelona Airpor, Spain
Distance from station: SO 25km
Actualización: 15/10/2018 15:30
Few Clouds
Few Clouds
 Viento del OSO
Viento: OSO 7 km/h
Temperatura: 22°C
Rocío: 14°C
Humedad: 61%
Barómetro: 1006 hPa
Clouds: Few Clouds
Visibilidad: 10 km
Cloud details: Few Clouds 914 m
2018/10/15 13:30 LEBL 151330Z 25004KT 9999 FEW030 22/14 Q1006 NOSIG
 
LEGE - Gerona/Costa Bra, Spain
Distance from station: NE 65km
Actualización: 15/10/2018 15:30
Parcialmente nuboso
Parcialmente nuboso
 Viento del ENE
Viento: ENE 20 km/h
Temperatura: 19°C
Rocío: 15°C
Humedad: 78%
Barómetro: 1006 hPa
Clouds: Parcialmente nuboso
Visibilidad: 10 km
Cloud details: Parcialmente nuboso 610 m
Parcialmente nuboso 1219 m
2018/10/15 13:30 LEGE 151330Z 07011KT 040V110 9999 SCT020 SCT040 19/15 Q1006
LERS - Reus (civ/Mil), Spain
Distance from station: OSO 96km
Actualización: 15/10/2018 15:30
Few Clouds
Few Clouds
 Viento del varies
Viento: varies 6 km/h
Temperatura: 21°C
Rocío: 13°C
Humedad: 60%
Barómetro: 1007 hPa
Clouds: Few Clouds
Visibilidad: 10 km
Cloud details: Few Clouds 1219 m
2018/10/15 13:30 LERS 151330Z VRB03KT 9999 FEW040 21/13 Q1007